sensor_id;sensor_type;location;lat;lon;timestamp;pressure;altitude;pressure_sealevel;temperature;humidity
64792;BME280;51226;47.504;19.074;2024-01-25T00:00:09;100527.38;;;9.14;55.22
64792;BME280;51226;47.504;19.074;2024-01-25T00:03:32;100535.75;;;9.06;55.45
64792;BME280;51226;47.504;19.074;2024-01-25T00:06:35;100508.06;;;9.08;55.48
64792;BME280;51226;47.504;19.074;2024-01-25T00:09:38;100528.91;;;9.08;55.39
64792;BME280;51226;47.504;19.074;2024-01-25T00:12:41;100516.03;;;9.12;54.99
64792;BME280;51226;47.504;19.074;2024-01-25T00:15:44;100530.28;;;9.20;54.55
64792;BME280;51226;47.504;19.074;2024-01-25T00:18:47;100532.81;;;9.18;54.93
64792;BME280;51226;47.504;19.074;2024-01-25T00:21:50;100521.91;;;9.27;54.43
64792;BME280;51226;47.504;19.074;2024-01-25T00:24:53;100519.22;;;9.24;54.43
64792;BME280;51226;47.504;19.074;2024-01-25T00:27:55;100517.28;;;9.20;54.88
64792;BME280;51226;47.504;19.074;2024-01-25T00:30:58;100539.88;;;9.21;54.84
64792;BME280;51226;47.504;19.074;2024-01-25T00:34:01;100537.50;;;9.25;54.63
64792;BME280;51226;47.504;19.074;2024-01-25T00:37:05;100529.63;;;9.24;54.91
64792;BME280;51226;47.504;19.074;2024-01-25T00:40:10;100546.19;;;9.26;54.95
64792;BME280;51226;47.504;19.074;2024-01-25T00:43:16;100539.34;;;9.28;54.67
64792;BME280;51226;47.504;19.074;2024-01-25T00:46:21;100534.81;;;9.24;54.67
64792;BME280;51226;47.504;19.074;2024-01-25T00:49:24;100546.38;;;9.11;55.30
64792;BME280;51226;47.504;19.074;2024-01-25T00:52:26;100566.72;;;9.20;54.89
64792;BME280;51226;47.504;19.074;2024-01-25T00:55:29;100560.94;;;9.07;55.32
64792;BME280;51226;47.504;19.074;2024-01-25T00:58:32;100544.25;;;9.22;54.65
64792;BME280;51226;47.504;19.074;2024-01-25T01:01:35;100550.56;;;9.27;54.10
64792;BME280;51226;47.504;19.074;2024-01-25T01:04:39;100540.03;;;9.24;53.78
64792;BME280;51226;47.504;19.074;2024-01-25T01:07:49;100519.00;;;9.19;54.04
64792;BME280;51226;47.504;19.074;2024-01-25T01:10:53;100530.34;;;9.21;53.88
64792;BME280;51226;47.504;19.074;2024-01-25T01:13:56;100513.66;;;9.16;54.13
64792;BME280;51226;47.504;19.074;2024-01-25T01:16:58;100509.25;;;9.15;54.03
64792;BME280;51226;47.504;19.074;2024-01-25T01:20:01;100507.34;;;9.11;54.02
64792;BME280;51226;47.504;19.074;2024-01-25T01:23:04;100511.03;;;9.16;53.70
64792;BME280;51226;47.504;19.074;2024-01-25T01:26:07;100492.62;;;9.12;54.05
64792;BME280;51226;47.504;19.074;2024-01-25T01:29:10;100508.91;;;9.27;53.49
64792;BME280;51226;47.504;19.074;2024-01-25T01:32:12;100501.09;;;9.27;53.33
64792;BME280;51226;47.504;19.074;2024-01-25T01:35:15;100500.63;;;9.16;53.47
64792;BME280;51226;47.504;19.074;2024-01-25T01:38:18;100498.78;;;9.14;53.92
64792;BME280;51226;47.504;19.074;2024-01-25T01:41:21;100500.00;;;9.22;53.51
64792;BME280;51226;47.504;19.074;2024-01-25T01:44:24;100514.66;;;9.20;53.61
64792;BME280;51226;47.504;19.074;2024-01-25T01:47:27;100513.03;;;9.22;53.58
64792;BME280;51226;47.504;19.074;2024-01-25T01:50:31;100487.63;;;9.16;53.92
64792;BME280;51226;47.504;19.074;2024-01-25T01:53:34;100495.50;;;9.18;53.99
64792;BME280;51226;47.504;19.074;2024-01-25T01:56:37;100499.47;;;9.09;54.26
64792;BME280;51226;47.504;19.074;2024-01-25T01:59:42;100503.56;;;9.04;54.17
64792;BME280;51226;47.504;19.074;2024-01-25T02:02:45;100501.50;;;9.17;53.73
64792;BME280;51226;47.504;19.074;2024-01-25T02:05:48;100489.59;;;9.22;53.31
64792;BME280;51226;47.504;19.074;2024-01-25T02:08:50;100489.34;;;9.16;53.24
64792;BME280;51226;47.504;19.074;2024-01-25T02:11:59;100481.13;;;9.26;52.72
64792;BME280;51226;47.504;19.074;2024-01-25T02:15:02;100479.19;;;9.22;52.81
64792;BME280;51226;47.504;19.074;2024-01-25T02:18:05;100469.62;;;9.21;52.93
64792;BME280;51226;47.504;19.074;2024-01-25T02:21:09;100470.38;;;9.18;52.85
64792;BME280;51226;47.504;19.074;2024-01-25T02:24:12;100471.59;;;9.26;52.28
64792;BME280;51226;47.504;19.074;2024-01-25T02:27:15;100473.31;;;9.26;52.53
64792;BME280;51226;47.504;19.074;2024-01-25T02:30:18;100471.31;;;9.20;52.80
64792;BME280;51226;47.504;19.074;2024-01-25T02:33:20;100472.88;;;9.17;52.80
64792;BME280;51226;47.504;19.074;2024-01-25T02:36:23;100482.78;;;9.24;52.44
64792;BME280;51226;47.504;19.074;2024-01-25T02:39:26;100468.19;;;9.27;52.20
64792;BME280;51226;47.504;19.074;2024-01-25T02:42:29;100472.75;;;9.33;51.99
64792;BME280;51226;47.504;19.074;2024-01-25T02:45:32;100464.63;;;9.25;52.19
64792;BME280;51226;47.504;19.074;2024-01-25T02:48:35;100464.66;;;9.27;52.22
64792;BME280;51226;47.504;19.074;2024-01-25T02:51:38;100458.66;;;9.28;52.06
64792;BME280;51226;47.504;19.074;2024-01-25T02:54:40;100462.22;;;9.30;52.36
64792;BME280;51226;47.504;19.074;2024-01-25T02:57:43;100453.59;;;9.31;52.30
64792;BME280;51226;47.504;19.074;2024-01-25T03:00:46;100453.87;;;9.37;52.34
64792;BME280;51226;47.504;19.074;2024-01-25T03:03:49;100459.75;;;9.33;52.56
64792;BME280;51226;47.504;19.074;2024-01-25T03:06:52;100437.75;;;9.26;53.08
64792;BME280;51226;47.504;19.074;2024-01-25T03:09:55;100454.69;;;9.36;53.10
64792;BME280;51226;47.504;19.074;2024-01-25T03:12:57;100447.56;;;9.32;53.39
64792;BME280;51226;47.504;19.074;2024-01-25T03:16:05;100451.94;;;9.33;53.89
64792;BME280;51226;47.504;19.074;2024-01-25T03:19:08;100469.06;;;9.28;54.30
64792;BME280;51226;47.504;19.074;2024-01-25T03:22:11;100467.56;;;9.33;54.45
64792;BME280;51226;47.504;19.074;2024-01-25T03:25:15;100459.19;;;9.40;54.46
64792;BME280;51226;47.504;19.074;2024-01-25T03:28:17;100473.63;;;9.34;54.85
64792;BME280;51226;47.504;19.074;2024-01-25T03:31:21;100475.44;;;9.35;54.59
64792;BME280;51226;47.504;19.074;2024-01-25T03:34:24;100467.75;;;9.38;54.75
64792;BME280;51226;47.504;19.074;2024-01-25T03:37:27;100479.00;;;9.37;54.49
64792;BME280;51226;47.504;19.074;2024-01-25T03:40:30;100495.38;;;9.34;54.84
64792;BME280;51226;47.504;19.074;2024-01-25T03:43:33;100464.34;;;9.39;54.86
64792;BME280;51226;47.504;19.074;2024-01-25T03:46:45;100472.34;;;9.43;54.69
64792;BME280;51226;47.504;19.074;2024-01-25T03:49:48;100471.31;;;9.40;54.97
64792;BME280;51226;47.504;19.074;2024-01-25T03:52:52;100466.31;;;9.44;55.13
64792;BME280;51226;47.504;19.074;2024-01-25T03:55:55;100464.28;;;9.37;55.42
64792;BME280;51226;47.504;19.074;2024-01-25T03:58:57;100466.41;;;9.46;55.13
64792;BME280;51226;47.504;19.074;2024-01-25T04:02:00;100469.19;;;9.51;55.16
64792;BME280;51226;47.504;19.074;2024-01-25T04:05:04;100449.88;;;9.45;55.14
64792;BME280;51226;47.504;19.074;2024-01-25T04:08:07;100456.78;;;9.45;54.37
64792;BME280;51226;47.504;19.074;2024-01-25T04:11:10;100461.13;;;9.44;54.11
64792;BME280;51226;47.504;19.074;2024-01-25T04:14:12;100433.63;;;9.51;53.87
64792;BME280;51226;47.504;19.074;2024-01-25T04:17:15;100466.47;;;9.48;53.72
64792;BME280;51226;47.504;19.074;2024-01-25T04:20:18;100450.13;;;9.52;53.17
64792;BME280;51226;47.504;19.074;2024-01-25T04:23:21;100430.16;;;9.51;53.04
64792;BME280;51226;47.504;19.074;2024-01-25T04:26:23;100446.87;;;9.36;53.30
64792;BME280;51226;47.504;19.074;2024-01-25T04:29:26;100414.41;;;9.48;52.75
64792;BME280;51226;47.504;19.074;2024-01-25T04:32:29;100451.09;;;9.54;52.71
64792;BME280;51226;47.504;19.074;2024-01-25T04:35:32;100463.00;;;9.49;52.89
64792;BME280;51226;47.504;19.074;2024-01-25T04:38:35;100452.50;;;9.45;53.07
64792;BME280;51226;47.504;19.074;2024-01-25T04:41:38;100470.81;;;9.49;53.01
64792;BME280;51226;47.504;19.074;2024-01-25T04:44:40;100468.28;;;9.50;53.33
64792;BME280;51226;47.504;19.074;2024-01-25T04:47:43;100465.31;;;9.41;53.87
64792;BME280;51226;47.504;19.074;2024-01-25T04:50:46;100472.41;;;9.45;53.83
64792;BME280;51226;47.504;19.074;2024-01-25T04:53:49;100482.44;;;9.36;54.16
64792;BME280;51226;47.504;19.074;2024-01-25T04:56:51;100485.69;;;9.32;54.21
64792;BME280;51226;47.504;19.074;2024-01-25T04:59:57;100477.97;;;9.33;54.29
64792;BME280;51226;47.504;19.074;2024-01-25T05:03:00;100479.12;;;9.40;54.28
64792;BME280;51226;47.504;19.074;2024-01-25T05:06:03;100479.91;;;9.37;54.29
64792;BME280;51226;47.504;19.074;2024-01-25T05:09:06;100472.62;;;9.30;54.77
64792;BME280;51226;47.504;19.074;2024-01-25T05:12:13;100474.56;;;9.34;54.51
64792;BME280;51226;47.504;19.074;2024-01-25T05:15:16;100485.91;;;9.36;54.62
64792;BME280;51226;47.504;19.074;2024-01-25T05:18:19;100480.78;;;9.38;54.47
64792;BME280;51226;47.504;19.074;2024-01-25T05:21:22;100490.09;;;9.33;54.57
64792;BME280;51226;47.504;19.074;2024-01-25T05:24:25;100480.56;;;9.33;54.64
64792;BME280;51226;47.504;19.074;2024-01-25T05:27:28;100496.75;;;9.45;53.93
64792;BME280;51226;47.504;19.074;2024-01-25T05:30:31;100486.88;;;9.38;54.13
64792;BME280;51226;47.504;19.074;2024-01-25T05:33:34;100495.50;;;9.37;53.99
64792;BME280;51226;47.504;19.074;2024-01-25T05:36:37;100506.81;;;9.38;53.87
64792;BME280;51226;47.504;19.074;2024-01-25T05:39:39;100489.25;;;9.34;54.00
64792;BME280;51226;47.504;19.074;2024-01-25T05:42:43;100497.91;;;9.33;54.32
64792;BME280;51226;47.504;19.074;2024-01-25T05:45:45;100496.66;;;9.24;54.50
64792;BME280;51226;47.504;19.074;2024-01-25T05:48:50;100507.72;;;9.19;55.07
64792;BME280;51226;47.504;19.074;2024-01-25T05:51:53;100498.91;;;9.17;55.42
64792;BME280;51226;47.504;19.074;2024-01-25T05:54:56;100492.13;;;9.20;55.65
64792;BME280;51226;47.504;19.074;2024-01-25T05:57:58;100482.84;;;9.25;55.74
64792;BME280;51226;47.504;19.074;2024-01-25T06:01:01;100496.66;;;9.24;55.90
64792;BME280;51226;47.504;19.074;2024-01-25T06:04:05;100493.25;;;9.25;55.94
64792;BME280;51226;47.504;19.074;2024-01-25T06:07:08;100493.19;;;9.24;56.10
64792;BME280;51226;47.504;19.074;2024-01-25T06:10:11;100496.59;;;9.23;56.23
64792;BME280;51226;47.504;19.074;2024-01-25T06:13:14;100506.78;;;9.18;56.58
64792;BME280;51226;47.504;19.074;2024-01-25T06:16:17;100509.59;;;9.23;56.32
64792;BME280;51226;47.504;19.074;2024-01-25T06:19:20;100510.56;;;9.25;56.28
64792;BME280;51226;47.504;19.074;2024-01-25T06:22:23;100525.37;;;9.26;56.27
64792;BME280;51226;47.504;19.074;2024-01-25T06:25:25;100532.06;;;9.21;56.46
64792;BME280;51226;47.504;19.074;2024-01-25T06:28:33;100534.63;;;9.39;55.51
64792;BME280;51226;47.504;19.074;2024-01-25T06:31:42;100513.91;;;9.42;55.27
64792;BME280;51226;47.504;19.074;2024-01-25T06:34:48;100523.88;;;9.31;55.56
64792;BME280;51226;47.504;19.074;2024-01-25T06:37:52;100529.22;;;9.34;55.45
64792;BME280;51226;47.504;19.074;2024-01-25T06:40:55;100533.56;;;9.35;55.52
64792;BME280;51226;47.504;19.074;2024-01-25T06:43:58;100543.19;;;9.36;55.57
64792;BME280;51226;47.504;19.074;2024-01-25T06:47:01;100544.41;;;9.44;55.14
64792;BME280;51226;47.504;19.074;2024-01-25T06:50:04;100541.00;;;9.45;54.93
64792;BME280;51226;47.504;19.074;2024-01-25T06:53:07;100551.75;;;9.53;54.75
64792;BME280;51226;47.504;19.074;2024-01-25T06:56:10;100565.94;;;9.60;54.71
64792;BME280;51226;47.504;19.074;2024-01-25T06:59:13;100541.81;;;9.64;54.02
64792;BME280;51226;47.504;19.074;2024-01-25T07:02:18;100549.75;;;9.67;53.72
64792;BME280;51226;47.504;19.074;2024-01-25T07:05:24;100529.19;;;9.73;53.47
64792;BME280;51226;47.504;19.074;2024-01-25T07:08:39;100505.88;;;9.76;53.00
64792;BME280;51226;47.504;19.074;2024-01-25T07:11:42;100501.50;;;9.75;52.93
64792;BME280;51226;47.504;19.074;2024-01-25T07:14:45;100500.94;;;9.82;52.21
64792;BME280;51226;47.504;19.074;2024-01-25T07:17:48;100477.37;;;9.79;52.24
64792;BME280;51226;47.504;19.074;2024-01-25T07:20:52;100474.00;;;9.82;51.92
64792;BME280;51226;47.504;19.074;2024-01-25T07:23:54;100457.75;;;9.88;51.64
64792;BME280;51226;47.504;19.074;2024-01-25T07:26:57;100458.75;;;9.91;51.28
64792;BME280;51226;47.504;19.074;2024-01-25T07:29:59;100461.63;;;9.97;51.21
64792;BME280;51226;47.504;19.074;2024-01-25T07:33:08;100462.31;;;9.93;51.28
64792;BME280;51226;47.504;19.074;2024-01-25T07:36:11;100475.03;;;10.07;50.69
64792;BME280;51226;47.504;19.074;2024-01-25T07:39:19;100488.13;;;10.08;50.58
64792;BME280;51226;47.504;19.074;2024-01-25T07:42:24;100491.00;;;10.14;50.26
64792;BME280;51226;47.504;19.074;2024-01-25T07:45:27;100508.34;;;10.35;49.58
64792;BME280;51226;47.504;19.074;2024-01-25T07:48:29;100513.25;;;10.48;49.38
64792;BME280;51226;47.504;19.074;2024-01-25T07:51:33;100519.97;;;10.64;48.63
64792;BME280;51226;47.504;19.074;2024-01-25T07:54:36;100544.81;;;10.77;47.80
64792;BME280;51226;47.504;19.074;2024-01-25T07:57:39;100549.63;;;10.89;47.56
64792;BME280;51226;47.504;19.074;2024-01-25T08:00:42;100532.37;;;11.15;47.08
64792;BME280;51226;47.504;19.074;2024-01-25T08:03:45;100541.81;;;11.36;46.82
64792;BME280;51226;47.504;19.074;2024-01-25T08:06:48;100541.06;;;11.62;45.79
64792;BME280;51226;47.504;19.074;2024-01-25T08:09:53;100534.94;;;11.86;44.71
64792;BME280;51226;47.504;19.074;2024-01-25T08:12:58;100536.84;;;12.16;43.38
64792;BME280;51226;47.504;19.074;2024-01-25T08:16:09;100533.38;;;12.42;42.41
64792;BME280;51226;47.504;19.074;2024-01-25T08:19:13;100535.50;;;12.54;41.70
64792;BME280;51226;47.504;19.074;2024-01-25T08:22:16;100541.53;;;12.79;40.92
64792;BME280;51226;47.504;19.074;2024-01-25T08:25:24;100530.38;;;13.13;40.35
64792;BME280;51226;47.504;19.074;2024-01-25T08:28:27;100535.91;;;13.53;40.15
64792;BME280;51226;47.504;19.074;2024-01-25T08:31:30;100529.81;;;14.19;38.69
64792;BME280;51226;47.504;19.074;2024-01-25T08:34:33;100519.94;;;15.20;37.08
64792;BME280;51226;47.504;19.074;2024-01-25T08:37:37;100528.78;;;16.64;34.38
64792;BME280;51226;47.504;19.074;2024-01-25T08:40:41;100508.25;;;17.73;32.64
64792;BME280;51226;47.504;19.074;2024-01-25T08:43:44;100526.75;;;18.74;30.42
64792;BME280;51226;47.504;19.074;2024-01-25T08:46:47;100513.06;;;19.41;29.04
64792;BME280;51226;47.504;19.074;2024-01-25T08:49:49;100517.66;;;20.84;27.55
64792;BME280;51226;47.504;19.074;2024-01-25T08:52:53;100521.47;;;22.16;26.24
64792;BME280;51226;47.504;19.074;2024-01-25T08:55:55;100499.59;;;22.90;24.29
64792;BME280;51226;47.504;19.074;2024-01-25T08:58:58;100543.25;;;22.63;24.96
64792;BME280;51226;47.504;19.074;2024-01-25T09:02:01;100534.19;;;22.89;24.47
64792;BME280;51226;47.504;19.074;2024-01-25T09:08:27;100547.25;;;24.44;22.89
64792;BME280;51226;47.504;19.074;2024-01-25T09:11:30;100555.25;;;23.80;23.04
64792;BME280;51226;47.504;19.074;2024-01-25T09:14:32;100548.19;;;23.05;23.89
64792;BME280;51226;47.504;19.074;2024-01-25T09:17:36;100584.56;;;23.01;24.05
64792;BME280;51226;47.504;19.074;2024-01-25T09:20:38;100573.22;;;23.67;23.30
64792;BME280;51226;47.504;19.074;2024-01-25T09:23:41;100568.13;;;23.49;23.27
64792;BME280;51226;47.504;19.074;2024-01-25T09:26:44;100590.44;;;24.07;23.00
64792;BME280;51226;47.504;19.074;2024-01-25T09:29:47;100548.38;;;26.15;20.86
64792;BME280;51226;47.504;19.074;2024-01-25T09:32:51;100559.22;;;27.76;19.04
64792;BME280;51226;47.504;19.074;2024-01-25T09:35:54;100582.09;;;28.18;18.69
64792;BME280;51226;47.504;19.074;2024-01-25T09:38:57;100560.59;;;27.30;19.04
64792;BME280;51226;47.504;19.074;2024-01-25T09:42:02;100578.53;;;27.25;19.51
64792;BME280;51226;47.504;19.074;2024-01-25T09:45:06;100594.81;;;26.09;20.33
64792;BME280;51226;47.504;19.074;2024-01-25T09:48:09;100586.06;;;26.02;20.63
64792;BME280;51226;47.504;19.074;2024-01-25T09:51:14;100580.31;;;25.79;20.63
64792;BME280;51226;47.504;19.074;2024-01-25T09:54:18;100586.37;;;26.26;20.06
64792;BME280;51226;47.504;19.074;2024-01-25T09:57:22;100577.41;;;26.30;20.24
64792;BME280;51226;47.504;19.074;2024-01-25T10:00:26;100586.09;;;25.57;20.49
64792;BME280;51226;47.504;19.074;2024-01-25T10:03:33;100601.19;;;24.04;22.19
64792;BME280;51226;47.504;19.074;2024-01-25T10:06:37;100594.72;;;22.57;23.65
64792;BME280;51226;47.504;19.074;2024-01-25T10:09:40;100592.28;;;24.02;22.30
64792;BME280;51226;47.504;19.074;2024-01-25T10:12:44;100605.72;;;26.39;19.90
64792;BME280;51226;47.504;19.074;2024-01-25T10:15:46;100590.84;;;25.44;20.60
64792;BME280;51226;47.504;19.074;2024-01-25T10:18:50;100593.03;;;23.40;22.67
64792;BME280;51226;47.504;19.074;2024-01-25T10:21:55;100573.22;;;21.31;24.89
64792;BME280;51226;47.504;19.074;2024-01-25T10:24:59;100585.72;;;20.67;26.01
64792;BME280;51226;47.504;19.074;2024-01-25T10:28:03;100576.81;;;21.11;26.11
64792;BME280;51226;47.504;19.074;2024-01-25T10:31:06;100559.84;;;22.90;23.89
64792;BME280;51226;47.504;19.074;2024-01-25T10:34:11;100575.63;;;26.29;20.35
64792;BME280;51226;47.504;19.074;2024-01-25T10:37:16;100570.00;;;28.33;17.85
64792;BME280;51226;47.504;19.074;2024-01-25T10:40:20;100558.34;;;29.12;17.17
64792;BME280;51226;47.504;19.074;2024-01-25T10:43:23;100553.88;;;31.34;15.39
64792;BME280;51226;47.504;19.074;2024-01-25T10:46:26;100561.66;;;32.54;14.38
64792;BME280;51226;47.504;19.074;2024-01-25T10:49:30;100556.66;;;32.46;14.53
64792;BME280;51226;47.504;19.074;2024-01-25T10:52:34;100541.06;;;31.79;14.67
64792;BME280;51226;47.504;19.074;2024-01-25T10:55:39;100568.72;;;30.40;15.80
64792;BME280;51226;47.504;19.074;2024-01-25T10:58:41;100558.78;;;31.45;15.05
64792;BME280;51226;47.504;19.074;2024-01-25T11:01:45;100552.56;;;32.38;14.46
64792;BME280;51226;47.504;19.074;2024-01-25T11:05:08;100554.06;;;32.26;14.31
64792;BME280;51226;47.504;19.074;2024-01-25T11:08:18;100545.84;;;30.93;14.95
64792;BME280;51226;47.504;19.074;2024-01-25T11:11:21;100557.16;;;29.68;16.10
64792;BME280;51226;47.504;19.074;2024-01-25T11:14:25;100566.81;;;28.75;17.11
64792;BME280;51226;47.504;19.074;2024-01-25T11:17:27;100551.34;;;26.74;18.30
64792;BME280;51226;47.504;19.074;2024-01-25T11:20:36;100547.12;;;25.89;19.53
64792;BME280;51226;47.504;19.074;2024-01-25T11:23:39;100544.84;;;23.63;21.40
64792;BME280;51226;47.504;19.074;2024-01-25T11:26:46;100553.81;;;22.74;22.45
64792;BME280;51226;47.504;19.074;2024-01-25T11:29:48;100562.69;;;21.10;24.02
64792;BME280;51226;47.504;19.074;2024-01-25T11:32:51;100548.59;;;20.82;24.88
64792;BME280;51226;47.504;19.074;2024-01-25T11:35:54;100551.25;;;20.67;25.15
64792;BME280;51226;47.504;19.074;2024-01-25T11:38:57;100566.16;;;19.91;26.21
64792;BME280;51226;47.504;19.074;2024-01-25T11:42:00;100563.50;;;19.78;26.66
64792;BME280;51226;47.504;19.074;2024-01-25T11:45:04;100566.97;;;19.71;26.74
64792;BME280;51226;47.504;19.074;2024-01-25T11:48:07;100548.25;;;19.25;27.03
64792;BME280;51226;47.504;19.074;2024-01-25T11:51:10;100547.44;;;19.38;26.96
64792;BME280;51226;47.504;19.074;2024-01-25T11:54:13;100545.59;;;19.25;27.32
64792;BME280;51226;47.504;19.074;2024-01-25T11:57:16;100539.44;;;19.29;27.42
64792;BME280;51226;47.504;19.074;2024-01-25T12:00:19;100554.38;;;19.15;27.40
64792;BME280;51226;47.504;19.074;2024-01-25T12:03:22;100540.88;;;18.78;28.00
64792;BME280;51226;47.504;19.074;2024-01-25T12:06:25;100559.37;;;18.78;27.84
64792;BME280;51226;47.504;19.074;2024-01-25T12:09:28;100558.38;;;18.63;27.65
64792;BME280;51226;47.504;19.074;2024-01-25T12:12:34;100566.28;;;18.62;28.10
64792;BME280;51226;47.504;19.074;2024-01-25T12:15:37;100565.81;;;18.06;28.35
64792;BME280;51226;47.504;19.074;2024-01-25T12:18:40;100577.81;;;17.81;28.61
64792;BME280;51226;47.504;19.074;2024-01-25T12:21:44;100588.41;;;17.84;28.64
64792;BME280;51226;47.504;19.074;2024-01-25T12:24:47;100573.66;;;18.02;28.27
64792;BME280;51226;47.504;19.074;2024-01-25T12:28:02;100572.56;;;18.75;27.39
64792;BME280;51226;47.504;19.074;2024-01-25T12:31:08;100572.41;;;20.36;25.45
64792;BME280;51226;47.504;19.074;2024-01-25T12:34:15;100553.56;;;21.82;23.41
64792;BME280;51226;47.504;19.074;2024-01-25T12:37:20;100566.53;;;22.36;22.79
64792;BME280;51226;47.504;19.074;2024-01-25T12:40:23;100561.59;;;23.73;21.47
64792;BME280;51226;47.504;19.074;2024-01-25T12:43:28;100534.25;;;24.24;20.44
64792;BME280;51226;47.504;19.074;2024-01-25T12:46:32;100544.22;;;24.10;20.47
64792;BME280;51226;47.504;19.074;2024-01-25T12:49:35;100533.78;;;23.97;20.79
64792;BME280;51226;47.504;19.074;2024-01-25T12:52:38;100539.53;;;24.26;20.65
64792;BME280;51226;47.504;19.074;2024-01-25T12:55:40;100545.44;;;23.87;20.70
64792;BME280;51226;47.504;19.074;2024-01-25T12:58:43;100514.91;;;23.46;21.02
64792;BME280;51226;47.504;19.074;2024-01-25T13:01:46;100528.28;;;23.41;21.05
64792;BME280;51226;47.504;19.074;2024-01-25T13:04:49;100492.91;;;23.97;20.56
64792;BME280;51226;47.504;19.074;2024-01-25T13:07:54;100487.97;;;24.28;20.10
64792;BME280;51226;47.504;19.074;2024-01-25T13:10:57;100512.59;;;24.42;20.01
64792;BME280;51226;47.504;19.074;2024-01-25T13:14:00;100516.16;;;24.41;20.09
64792;BME280;51226;47.504;19.074;2024-01-25T13:17:03;100510.09;;;24.33;20.38
64792;BME280;51226;47.504;19.074;2024-01-25T13:20:06;100489.41;;;24.48;20.18
64792;BME280;51226;47.504;19.074;2024-01-25T13:23:10;100510.25;;;24.24;20.70
64792;BME280;51226;47.504;19.074;2024-01-25T13:26:12;100494.75;;;23.92;20.83
64792;BME280;51226;47.504;19.074;2024-01-25T13:29:15;100500.91;;;23.30;21.55
64792;BME280;51226;47.504;19.074;2024-01-25T13:32:18;100512.47;;;22.42;22.56
64792;BME280;51226;47.504;19.074;2024-01-25T13:35:21;100502.38;;;21.60;23.63
64792;BME280;51226;47.504;19.074;2024-01-25T13:38:23;100509.72;;;20.16;25.10
64792;BME280;51226;47.504;19.074;2024-01-25T13:41:27;100532.28;;;19.08;26.35
64792;BME280;51226;47.504;19.074;2024-01-25T13:44:29;100551.12;;;18.35;27.62
64792;BME280;51226;47.504;19.074;2024-01-25T13:47:32;100545.63;;;17.36;29.23
64792;BME280;51226;47.504;19.074;2024-01-25T13:50:35;100543.50;;;16.53;30.68
64792;BME280;51226;47.504;19.074;2024-01-25T13:53:38;100544.19;;;15.90;31.34
64792;BME280;51226;47.504;19.074;2024-01-25T13:56:40;100557.22;;;15.43;32.53
64792;BME280;51226;47.504;19.074;2024-01-25T13:59:43;100563.22;;;14.96;33.33
64792;BME280;51226;47.504;19.074;2024-01-25T14:02:46;100554.19;;;14.49;34.25
64792;BME280;51226;47.504;19.074;2024-01-25T14:05:50;100572.34;;;14.07;34.79
64792;BME280;51226;47.504;19.074;2024-01-25T14:08:52;100583.59;;;13.70;35.81
64792;BME280;51226;47.504;19.074;2024-01-25T14:11:55;100582.22;;;13.25;36.60
64792;BME280;51226;47.504;19.074;2024-01-25T14:14:58;100596.09;;;12.94;37.35
64792;BME280;51226;47.504;19.074;2024-01-25T14:18:01;100582.13;;;12.66;38.37
64792;BME280;51226;47.504;19.074;2024-01-25T14:21:03;100597.94;;;12.44;38.68
64792;BME280;51226;47.504;19.074;2024-01-25T14:24:07;100602.97;;;12.37;39.12
64792;BME280;51226;47.504;19.074;2024-01-25T14:27:09;100605.81;;;12.18;39.58
64792;BME280;51226;47.504;19.074;2024-01-25T14:30:13;100613.19;;;12.05;39.72
64792;BME280;51226;47.504;19.074;2024-01-25T14:33:16;100611.16;;;11.97;39.97
64792;BME280;51226;47.504;19.074;2024-01-25T14:36:19;100633.25;;;11.82;40.57
64792;BME280;51226;47.504;19.074;2024-01-25T14:39:22;100621.66;;;11.76;40.50
64792;BME280;51226;47.504;19.074;2024-01-25T14:42:25;100628.13;;;11.61;40.63
64792;BME280;51226;47.504;19.074;2024-01-25T14:45:27;100636.38;;;11.49;40.94
64792;BME280;51226;47.504;19.074;2024-01-25T14:48:33;100646.53;;;11.42;41.53
64792;BME280;51226;47.504;19.074;2024-01-25T14:51:35;100644.44;;;11.33;41.80
64792;BME280;51226;47.504;19.074;2024-01-25T14:54:41;100656.66;;;11.34;41.59
64792;BME280;51226;47.504;19.074;2024-01-25T14:57:45;100652.22;;;11.31;42.02
64792;BME280;51226;47.504;19.074;2024-01-25T15:00:49;100656.94;;;11.19;42.30
64792;BME280;51226;47.504;19.074;2024-01-25T15:03:52;100673.31;;;11.15;42.68
64792;BME280;51226;47.504;19.074;2024-01-25T15:06:55;100668.22;;;11.18;42.79
64792;BME280;51226;47.504;19.074;2024-01-25T15:09:58;100669.12;;;11.19;42.22
64792;BME280;51226;47.504;19.074;2024-01-25T15:13:03;100677.47;;;11.10;42.64
64792;BME280;51226;47.504;19.074;2024-01-25T15:16:06;100669.59;;;11.08;42.66
64792;BME280;51226;47.504;19.074;2024-01-25T15:19:09;100676.28;;;11.02;42.65
64792;BME280;51226;47.504;19.074;2024-01-25T15:22:11;100684.44;;;11.09;42.58
64792;BME280;51226;47.504;19.074;2024-01-25T15:25:14;100680.69;;;11.03;42.73
64792;BME280;51226;47.504;19.074;2024-01-25T15:28:17;100684.75;;;10.96;43.03
64792;BME280;51226;47.504;19.074;2024-01-25T15:31:23;100685.44;;;10.92;42.98
64792;BME280;51226;47.504;19.074;2024-01-25T15:34:25;100684.16;;;10.82;43.38
64792;BME280;51226;47.504;19.074;2024-01-25T15:37:29;100685.25;;;10.87;43.27
64792;BME280;51226;47.504;19.074;2024-01-25T15:40:34;100672.34;;;10.69;43.75
64792;BME280;51226;47.504;19.074;2024-01-25T15:43:38;100669.16;;;10.77;43.81
64792;BME280;51226;47.504;19.074;2024-01-25T15:46:40;100670.53;;;10.68;43.93
64792;BME280;51226;47.504;19.074;2024-01-25T15:49:43;100680.72;;;10.62;43.98
64792;BME280;51226;47.504;19.074;2024-01-25T15:52:46;100678.47;;;10.50;44.28
64792;BME280;51226;47.504;19.074;2024-01-25T15:55:50;100670.72;;;10.52;44.54